Time;durP1;ratioP1;P1;durP2;ratioP2;P2;SDS_P1;SDS_P2;PMS_P1;PMS_P2;Temp;Humidity;BMP_temperature;BMP_pressure;BME280_temperature;BME280_humidity;BME280_pressure;Samples;Min_cycle;Max_cycle;Signal;HPM_P1;HPM_P2
2022/01/22 00:01:28;;;;;;;17.13;2.83;;;;;;;;;;5039352;28;20300;-70
2022/01/22 00:03:54;;;;;;;16.27;2.60;;;;;;;;;;5042411;28;20282;-70
2022/01/22 00:06:19;;;;;;;19.93;3.93;;;;;;;;;;5045936;28;20208;-70
2022/01/22 00:08:45;;;;;;;21.40;2.90;;;;;;;;;;5043316;28;20256;-70
2022/01/22 00:11:10;;;;;;;20.47;3.07;;;;;;;;;;5045962;28;20176;-69
2022/01/22 00:16:19;;;;;;;14.43;2.67;;;;;;;;;;5041156;28;20602;-70
2022/01/22 00:18:45;;;;;;;19.40;2.90;;;;;;;;;;5042620;28;20193;-70
2022/01/22 00:21:10;;;;;;;17.73;3.00;;;;;;;;;;5043522;28;20195;-70
2022/01/22 00:23:38;;;;;;;19.67;2.97;;;;;;;;;;5040908;28;20554;-70
2022/01/22 00:26:04;;;;;;;20.70;3.27;;;;;;;;;;5043441;28;20251;-70
2022/01/22 00:28:29;;;;;;;14.13;3.00;;;;;;;;;;5044094;28;20566;-68
2022/01/22 00:30:55;;;;;;;13.97;2.70;;;;;;;;;;5046209;28;20212;-70
2022/01/22 00:33:20;;;;;;;17.50;2.97;;;;;;;;;;5041918;28;20265;-70
2022/01/22 00:35:46;;;;;;;17.70;3.43;;;;;;;;;;5043504;28;20192;-70
2022/01/22 00:38:12;;;;;;;17.60;3.13;;;;;;;;;;5041717;28;20224;-70
2022/01/22 00:40:38;;;;;;;15.13;2.50;;;;;;;;;;5046107;28;20185;-69
2022/01/22 00:43:03;;;;;;;16.90;3.00;;;;;;;;;;5040393;28;20185;-69
2022/01/22 00:45:29;;;;;;;23.77;2.73;;;;;;;;;;5045675;28;20566;-69
2022/01/22 00:47:54;;;;;;;13.03;2.80;;;;;;;;;;5043615;28;20238;-70
2022/01/22 00:50:23;;;;;;;16.03;2.87;;;;;;;;;;5044955;28;20231;-69
2022/01/22 00:52:50;;;;;;;14.27;2.33;;;;;;;;;;5042215;28;20181;-70
2022/01/22 00:55:16;;;;;;;21.13;3.37;;;;;;;;;;5042877;28;20177;-70
2022/01/22 00:57:41;;;;;;;17.17;2.60;;;;;;;;;;5044314;28;20189;-69
2022/01/22 01:00:11;;;;;;;17.80;2.80;;;;;;;;;;5042520;28;20264;-70
2022/01/22 01:02:36;;;;;;;17.43;2.90;;;;;;;;;;5036602;28;20559;-69
2022/01/22 01:05:05;;;;;;;25.10;3.33;;;;;;;;;;5040500;28;20292;-69
2022/01/22 01:07:30;;;;;;;15.17;2.20;;;;;;;;;;5040995;28;21219;-69
2022/01/22 01:09:56;;;;;;;18.40;2.47;;;;;;;;;;5044140;28;20229;-69
2022/01/22 01:12:21;;;;;;;17.33;2.87;;;;;;;;;;5040866;28;20189;-70
2022/01/22 01:15:10;;;;;;;12.77;2.97;;;;;;;;;;5046309;28;20247;-70
2022/01/22 01:34:11;;;;;;;15.43;2.40;;;;;;;;;;5041930;28;20200;-71
2022/01/22 01:36:37;;;;;;;24.40;2.63;;;;;;;;;;5041695;28;20181;-71
2022/01/22 01:39:06;;;;;;;18.60;2.43;;;;;;;;;;5048186;28;20264;-70
2022/01/22 01:44:00;;;;;;;15.17;2.60;;;;;;;;;;5046328;28;20189;-70
2022/01/22 01:46:29;;;;;;;17.93;2.50;;;;;;;;;;5046889;28;20228;-70
2022/01/22 01:48:54;;;;;;;19.37;2.73;;;;;;;;;;5044840;28;20264;-71
2022/01/22 01:51:23;;;;;;;15.37;2.47;;;;;;;;;;5046864;28;20265;-70
2022/01/22 01:53:59;;;;;;;12.67;2.07;;;;;;;;;;5047281;28;20189;-69
2022/01/22 01:59:12;;;;;;;17.37;2.23;;;;;;;;;;5046876;28;20323;-69
2022/01/22 02:01:37;;;;;;;14.37;1.97;;;;;;;;;;5043782;28;20186;-68
2022/01/22 02:04:02;;;;;;;18.77;2.60;;;;;;;;;;5047045;28;20684;-68
2022/01/22 02:06:28;;;;;;;18.20;2.73;;;;;;;;;;5046043;28;20213;-69
2022/01/22 02:08:53;;;;;;;19.47;2.50;;;;;;;;;;5046905;28;20306;-69
2022/01/22 02:11:21;;;;;;;18.20;2.53;;;;;;;;;;5045261;28;20198;-69
2022/01/22 02:14:03;;;;;;;17.47;2.37;;;;;;;;;;5044372;28;20429;-69
2022/01/22 02:24:49;;;;;;;14.23;1.87;;;;;;;;;;5046527;28;20583;-69
2022/01/22 02:27:18;;;;;;;18.67;3.30;;;;;;;;;;5044626;28;20728;-69
2022/01/22 02:29:44;;;;;;;15.07;1.83;;;;;;;;;;5043708;28;20196;-69
2022/01/22 02:32:53;;;;;;;15.27;1.70;;;;;;;;;;5046937;28;20533;-71
2022/01/22 02:35:26;;;;;;;18.47;1.80;;;;;;;;;;5038586;28;20331;-69
2022/01/22 02:37:58;;;;;;;12.97;1.60;;;;;;;;;;5043697;28;20184;-69
2022/01/22 02:40:28;;;;;;;12.57;1.60;;;;;;;;;;5037109;28;20189;-69
2022/01/22 02:42:54;;;;;;;22.77;1.80;;;;;;;;;;5045787;28;20197;-69
2022/01/22 02:45:22;;;;;;;13.07;1.97;;;;;;;;;;5043863;28;20197;-69
2022/01/22 02:47:48;;;;;;;13.87;2.43;;;;;;;;;;5043583;28;20193;-69
2022/01/22 02:50:14;;;;;;;16.60;1.90;;;;;;;;;;5045759;28;20782;-69
2022/01/22 02:52:40;;;;;;;17.10;1.93;;;;;;;;;;5043806;28;20189;-69
2022/01/22 02:55:07;;;;;;;12.17;1.83;;;;;;;;;;5045373;28;20684;-69
2022/01/22 02:57:34;;;;;;;16.60;2.20;;;;;;;;;;5039362;28;20200;-69
2022/01/22 03:00:00;;;;;;;9.70;2.20;;;;;;;;;;5043516;28;20184;-69
2022/01/22 03:02:27;;;;;;;12.97;1.80;;;;;;;;;;5041563;28;20220;-69
2022/01/22 03:04:52;;;;;;;16.90;2.27;;;;;;;;;;5044134;28;20735;-69
2022/01/22 03:07:17;;;;;;;14.60;2.33;;;;;;;;;;5043007;28;20186;-69
2022/01/22 03:09:45;;;;;;;26.07;2.93;;;;;;;;;;5047126;28;20233;-69
2022/01/22 03:13:08;;;;;;;12.73;1.87;;;;;;;;;;5041078;28;20215;-69
2022/01/22 03:15:36;;;;;;;13.70;1.70;;;;;;;;;;5036427;28;20193;-70
2022/01/22 03:20:45;;;;;;;17.73;2.10;;;;;;;;;;5045516;28;20205;-70
2022/01/22 03:28:25;;;;;;;12.00;1.73;;;;;;;;;;5044766;28;20220;-68
2022/01/22 03:30:51;;;;;;;9.23;1.70;;;;;;;;;;5043578;28;20680;-68
2022/01/22 03:33:20;;;;;;;11.60;1.73;;;;;;;;;;5045587;28;20247;-70
2022/01/22 03:35:53;;;;;;;10.23;1.70;;;;;;;;;;5041411;28;20261;-69
2022/01/22 03:38:18;;;;;;;14.73;2.00;;;;;;;;;;5043753;28;20178;-70
2022/01/22 03:40:48;;;;;;;16.30;2.10;;;;;;;;;;5041549;28;20695;-69
2022/01/22 03:43:14;;;;;;;12.93;1.83;;;;;;;;;;5039117;28;20607;-68
2022/01/22 03:45:40;;;;;;;6.77;1.43;;;;;;;;;;5043096;28;20235;-69
2022/01/22 03:48:05;;;;;;;11.40;1.93;;;;;;;;;;5046648;28;20256;-69
2022/01/22 03:50:30;;;;;;;8.23;2.10;;;;;;;;;;5040948;28;20190;-68
2022/01/22 03:52:56;;;;;;;6.67;1.43;;;;;;;;;;5045860;28;20185;-69
2022/01/22 03:58:05;;;;;;;14.03;1.90;;;;;;;;;;5045908;28;20655;-68
2022/01/22 04:00:30;;;;;;;11.17;1.67;;;;;;;;;;5035913;28;20186;-69
2022/01/22 04:05:55;;;;;;;12.60;2.60;;;;;;;;;;5042101;28;20282;-69
2022/01/22 04:08:20;;;;;;;13.27;1.70;;;;;;;;;;5044766;28;20217;-69
2022/01/22 04:10:46;;;;;;;11.60;1.50;;;;;;;;;;5042744;28;20244;-69
2022/01/22 04:13:14;;;;;;;12.67;1.80;;;;;;;;;;5044677;28;20184;-68
2022/01/22 04:15:41;;;;;;;15.97;2.00;;;;;;;;;;5045892;28;20181;-68
2022/01/22 04:26:35;;;;;;;12.60;2.20;;;;;;;;;;5041074;28;20255;-68
2022/01/22 04:29:01;;;;;;;15.73;2.23;;;;;;;;;;5043821;28;20169;-69
2022/01/22 04:31:26;;;;;;;14.37;1.97;;;;;;;;;;5039641;28;20223;-69
2022/01/22 04:33:52;;;;;;;17.57;2.10;;;;;;;;;;5045141;28;20197;-69
2022/01/22 04:36:17;;;;;;;7.17;1.50;;;;;;;;;;5040792;28;20204;-69
2022/01/22 04:38:42;;;;;;;15.40;2.70;;;;;;;;;;5043801;28;20661;-69
2022/01/22 04:41:08;;;;;;;14.47;1.70;;;;;;;;;;5037728;28;20239;-69
2022/01/22 04:43:36;;;;;;;11.70;1.83;;;;;;;;;;5040117;28;20740;-69
2022/01/22 04:46:17;;;;;;;7.60;2.30;;;;;;;;;;5040453;28;20263;-69
2022/01/22 04:48:52;;;;;;;9.33;2.53;;;;;;;;;;5045408;28;20177;-69
2022/01/22 04:56:47;;;;;;;15.63;2.43;;;;;;;;;;5040603;28;20247;-69
2022/01/22 04:59:13;;;;;;;4.43;1.40;;;;;;;;;;5042311;28;20181;-69
2022/01/22 05:01:38;;;;;;;8.37;1.93;;;;;;;;;;5042779;28;20303;-69
2022/01/22 05:04:03;;;;;;;8.63;1.80;;;;;;;;;;5033852;28;20186;-68
2022/01/22 05:06:30;;;;;;;9.87;1.80;;;;;;;;;;5040796;28;20642;-69
2022/01/22 05:08:55;;;;;;;5.53;1.77;;;;;;;;;;5044943;28;20221;-69
2022/01/22 05:11:21;;;;;;;11.33;2.00;;;;;;;;;;5040323;28;20182;-68
2022/01/22 05:13:47;;;;;;;9.13;1.93;;;;;;;;;;5042091;28;20177;-68
2022/01/22 05:16:12;;;;;;;7.47;1.90;;;;;;;;;;5039381;28;20178;-68
2022/01/22 05:18:46;;;;;;;11.43;2.20;;;;;;;;;;5046196;28;20636;-68
2022/01/22 05:21:15;;;;;;;8.07;2.33;;;;;;;;;;5041018;28;20347;-69
2022/01/22 05:23:42;;;;;;;10.87;2.63;;;;;;;;;;5038597;28;20272;-69
2022/01/22 05:26:22;;;;;;;8.80;2.20;;;;;;;;;;5044212;28;20197;-69
2022/01/22 05:29:13;;;;;;;13.53;3.17;;;;;;;;;;5043833;28;20180;-69
2022/01/22 05:32:03;;;;;;;10.83;3.20;;;;;;;;;;5040018;28;20225;-69
2022/01/22 05:37:10;;;;;;;5.37;1.83;;;;;;;;;;5044642;28;20720;-69
2022/01/22 05:39:36;;;;;;;9.47;2.40;;;;;;;;;;5045621;28;20193;-69
2022/01/22 05:42:04;;;;;;;7.17;2.10;;;;;;;;;;5041557;28;20173;-69
2022/01/22 05:44:35;;;;;;;8.93;2.20;;;;;;;;;;5041857;28;20664;-69
2022/01/22 05:47:05;;;;;;;8.77;2.37;;;;;;;;;;5042360;28;20166;-69
2022/01/22 05:49:33;;;;;;;7.70;2.40;;;;;;;;;;5038738;28;20197;-69
2022/01/22 05:52:01;;;;;;;5.97;1.90;;;;;;;;;;5043345;28;20189;-69
2022/01/22 05:54:48;;;;;;;6.37;1.93;;;;;;;;;;5040098;28;20553;-69
2022/01/22 05:59:58;;;;;;;5.17;1.90;;;;;;;;;;5038957;28;20205;-69
2022/01/22 06:02:23;;;;;;;9.10;1.90;;;;;;;;;;5041100;28;20190;-68
2022/01/22 06:04:49;;;;;;;7.77;2.10;;;;;;;;;;5044007;28;20205;-69
2022/01/22 06:07:14;;;;;;;4.37;1.47;;;;;;;;;;5039165;28;20238;-69
2022/01/22 06:09:54;;;;;;;6.17;2.17;;;;;;;;;;5041617;28;20221;-68
2022/01/22 06:12:34;;;;;;;5.90;1.60;;;;;;;;;;5038535;28;20188;-69
2022/01/22 06:15:01;;;;;;;13.03;2.20;;;;;;;;;;5031868;28;20568;-69
2022/01/22 06:17:26;;;;;;;9.13;1.87;;;;;;;;;;4342816;28;10000864;-69
2022/01/22 06:19:51;;;;;;;5.97;1.60;;;;;;;;;;5038901;28;20189;-68
2022/01/22 06:22:17;;;;;;;8.37;2.40;;;;;;;;;;5036374;28;20618;-69
2022/01/22 06:24:42;;;;;;;7.63;2.07;;;;;;;;;;5040894;28;20255;-69
2022/01/22 06:27:07;;;;;;;9.17;2.50;;;;;;;;;;5044690;28;20224;-70
2022/01/22 06:29:33;;;;;;;9.17;2.70;;;;;;;;;;5039767;28;20263;-68
2022/01/22 06:31:58;;;;;;;5.03;2.00;;;;;;;;;;5045140;28;20193;-69
2022/01/22 06:34:23;;;;;;;4.23;2.20;;;;;;;;;;5042408;28;20469;-69
2022/01/22 06:36:49;;;;;;;8.80;2.57;;;;;;;;;;5040325;28;20193;-69
2022/01/22 06:39:16;;;;;;;6.80;2.13;;;;;;;;;;5030664;28;20207;-69
2022/01/22 06:41:45;;;;;;;4.77;2.23;;;;;;;;;;5044022;28;20185;-69
2022/01/22 06:44:22;;;;;;;11.20;2.10;;;;;;;;;;5042817;28;20189;-69
2022/01/22 06:46:50;;;;;;;6.23;2.00;;;;;;;;;;5041172;28;20204;-69
2022/01/22 06:49:16;;;;;;;5.63;2.10;;;;;;;;;;5039860;28;20189;-70
2022/01/22 06:51:41;;;;;;;4.50;2.03;;;;;;;;;;5044193;28;20235;-70
2022/01/22 06:54:08;;;;;;;5.47;2.23;;;;;;;;;;5038122;28;20190;-69
2022/01/22 06:56:33;;;;;;;7.70;2.23;;;;;;;;;;5033828;28;20401;-70
2022/01/22 06:59:00;;;;;;;11.23;2.67;;;;;;;;;;5039458;28;20194;-68
2022/01/22 07:01:27;;;;;;;9.00;2.20;;;;;;;;;;5042105;28;20196;-69
2022/01/22 07:03:54;;;;;;;10.13;2.83;;;;;;;;;;5040596;28;20245;-68
2022/01/22 07:06:20;;;;;;;6.60;2.83;;;;;;;;;;5042412;28;20224;-69
2022/01/22 07:08:45;;;;;;;8.47;2.40;;;;;;;;;;5041999;28;20225;-69
2022/01/22 07:11:11;;;;;;;10.40;2.77;;;;;;;;;;5042870;28;20258;-69
2022/01/22 07:13:37;;;;;;;8.57;2.80;;;;;;;;;;5043615;28;20663;-70
2022/01/22 07:16:03;;;;;;;4.83;2.43;;;;;;;;;;5042484;28;20185;-69
2022/01/22 07:18:29;;;;;;;6.50;2.40;;;;;;;;;;5042800;28;20634;-69
2022/01/22 07:20:55;;;;;;;4.33;2.23;;;;;;;;;;5040118;28;20660;-69
2022/01/22 07:23:53;;;;;;;5.77;2.30;;;;;;;;;;5045167;28;20185;-70
2022/01/22 07:26:07;;;;;;;6.50;2.50;;;;;;;;;;5040390;28;20224;-69
2022/01/22 07:28:32;;;;;;;7.53;2.57;;;;;;;;;;5041996;28;20178;-69
2022/01/22 07:31:00;;;;;;;13.17;2.73;;;;;;;;;;5040312;28;20656;-70
2022/01/22 07:33:26;;;;;;;6.80;2.20;;;;;;;;;;5047359;28;20192;-69
2022/01/22 07:35:52;;;;;;;4.07;2.00;;;;;;;;;;5041583;28;20609;-69
2022/01/22 07:38:17;;;;;;;7.10;2.03;;;;;;;;;;5045259;28;20192;-69
2022/01/22 07:40:43;;;;;;;10.10;2.00;;;;;;;;;;5041928;28;20197;-69
2022/01/22 07:43:08;;;;;;;5.83;2.20;;;;;;;;;;5044133;28;20195;-69
2022/01/22 07:45:34;;;;;;;8.47;2.20;;;;;;;;;;5044381;28;20339;-70
2022/01/22 07:47:59;;;;;;;7.20;2.63;;;;;;;;;;5048058;28;20185;-70
2022/01/22 07:50:25;;;;;;;9.07;2.40;;;;;;;;;;5043868;28;20189;-71
2022/01/22 07:52:50;;;;;;;7.77;2.30;;;;;;;;;;5041758;28;20229;-70
2022/01/22 07:55:18;;;;;;;5.70;1.90;;;;;;;;;;5043649;28;20288;-70
2022/01/22 07:57:47;;;;;;;7.53;2.20;;;;;;;;;;5042678;28;20662;-69
2022/01/22 08:00:14;;;;;;;5.23;2.13;;;;;;;;;;5038171;28;20201;-69
2022/01/22 08:02:40;;;;;;;6.57;2.23;;;;;;;;;;5040849;28;20189;-70
2022/01/22 08:05:06;;;;;;;9.27;3.00;;;;;;;;;;5042744;28;20440;-71
2022/01/22 08:07:31;;;;;;;5.73;2.50;;;;;;;;;;5041185;28;20573;-70
2022/01/22 08:09:59;;;;;;;8.40;2.90;;;;;;;;;;5041647;28;20332;-70
2022/01/22 08:12:25;;;;;;;7.10;2.33;;;;;;;;;;5040734;28;20289;-70
2022/01/22 08:14:50;;;;;;;6.50;2.73;;;;;;;;;;5045063;28;20269;-70
2022/01/22 08:17:16;;;;;;;5.90;2.10;;;;;;;;;;5043402;28;20235;-70
2022/01/22 08:19:41;;;;;;;5.87;2.43;;;;;;;;;;5045127;28;20303;-70
2022/01/22 08:22:07;;;;;;;8.10;2.47;;;;;;;;;;5044893;28;20193;-69
2022/01/22 08:24:32;;;;;;;5.37;2.27;;;;;;;;;;5042324;28;20197;-69
2022/01/22 08:29:42;;;;;;;6.77;2.03;;;;;;;;;;5042820;28;20459;-69
2022/01/22 08:37:26;;;;;;;7.87;2.40;;;;;;;;;;5043778;28;20208;-70
2022/01/22 08:39:52;;;;;;;4.43;2.10;;;;;;;;;;5037655;28;20571;-70
2022/01/22 08:42:21;;;;;;;5.65;2.60;;;;;;;;;;4419712;28;10001739;-70
2022/01/22 08:44:47;;;;;;;6.00;2.27;;;;;;;;;;5037405;28;20427;-70
2022/01/22 08:47:13;;;;;;;4.73;2.13;;;;;;;;;;5039670;28;20200;-70
2022/01/22 08:49:38;;;;;;;4.47;1.80;;;;;;;;;;5040373;28;20553;-69
2022/01/22 08:52:09;;;;;;;4.30;1.60;;;;;;;;;;5031543;28;20185;-70
2022/01/22 08:54:35;;;;;;;6.00;2.60;;;;;;;;;;5040180;28;20177;-69
2022/01/22 08:57:00;;;;;;;5.10;2.00;;;;;;;;;;4686200;28;9999753;-69
2022/01/22 08:59:25;;;;;;;7.00;1.90;;;;;;;;;;5032830;28;20327;-69
2022/01/22 09:01:51;;;;;;;5.73;2.33;;;;;;;;;;5036287;28;20181;-70
2022/01/22 09:04:16;;;;;;;6.70;2.13;;;;;;;;;;5037650;28;20200;-70
2022/01/22 09:06:43;;;;;;;3.67;2.23;;;;;;;;;;5040649;28;20316;-69
2022/01/22 09:09:10;;;;;;;4.17;2.00;;;;;;;;;;5033830;28;20225;-70
2022/01/22 09:11:41;;;;;;;3.83;2.13;;;;;;;;;;5033597;28;21332;-69
2022/01/22 09:14:09;;;;;;;5.67;2.20;;;;;;;;;;5039469;28;20173;-70
2022/01/22 09:16:35;;;;;;;7.73;2.97;;;;;;;;;;5042761;28;20264;-68
2022/01/22 09:19:06;;;;;;;6.63;2.10;;;;;;;;;;5039006;28;20188;-69
2022/01/22 09:21:37;;;;;;;5.70;2.10;;;;;;;;;;5042484;28;20220;-71
2022/01/22 09:24:03;;;;;;;5.50;1.93;;;;;;;;;;5042753;28;20680;-70
2022/01/22 09:26:29;;;;;;;4.70;1.90;;;;;;;;;;5038871;28;20212;-69
2022/01/22 09:28:57;;;;;;;6.00;1.80;;;;;;;;;;5042214;28;20851;-69
2022/01/22 09:31:24;;;;;;;5.43;2.03;;;;;;;;;;5039052;28;20712;-69
2022/01/22 09:33:49;;;;;;;5.50;2.10;;;;;;;;;;5036486;28;20588;-70
2022/01/22 09:36:15;;;;;;;3.30;1.77;;;;;;;;;;5039477;28;20188;-70
2022/01/22 09:38:40;;;;;;;2.23;1.47;;;;;;;;;;5040550;28;20185;-69
2022/01/22 09:41:06;;;;;;;3.37;1.63;;;;;;;;;;5038543;28;20174;-69
2022/01/22 09:43:32;;;;;;;4.10;1.60;;;;;;;;;;5041777;28;20196;-69
2022/01/22 09:45:57;;;;;;;2.37;1.40;;;;;;;;;;5040814;28;20189;-69
2022/01/22 09:48:23;;;;;;;2.70;1.50;;;;;;;;;;5041058;28;20194;-70
2022/01/22 09:50:48;;;;;;;2.17;1.40;;;;;;;;;;5042863;28;20185;-70
2022/01/22 09:53:14;;;;;;;3.90;1.10;;;;;;;;;;5039027;28;20329;-70
2022/01/22 09:55:39;;;;;;;2.33;1.40;;;;;;;;;;5042923;28;20185;-70
2022/01/22 09:58:04;;;;;;;2.33;1.13;;;;;;;;;;5047570;28;20196;-70
2022/01/22 10:00:30;;;;;;;3.00;1.10;;;;;;;;;;5044086;28;20196;-72
2022/01/22 10:02:57;;;;;;;4.97;1.50;;;;;;;;;;5041979;28;20193;-73
2022/01/22 10:05:35;;;;;;;5.03;1.87;;;;;;;;;;5045798;28;20243;-71
2022/01/22 10:08:24;;;;;;;4.17;1.67;;;;;;;;;;5045600;28;20197;-72
2022/01/22 10:10:51;;;;;;;6.33;1.70;;;;;;;;;;5039097;28;20551;-72
2022/01/22 10:13:39;;;;;;;5.03;1.80;;;;;;;;;;5046852;28;20612;-72
2022/01/22 10:16:26;;;;;;;6.13;1.93;;;;;;;;;;5047525;28;20215;-72
2022/01/22 10:19:20;;;;;;;5.10;2.30;;;;;;;;;;5043845;28;20196;-72
2022/01/22 10:21:57;;;;;;;6.77;2.40;;;;;;;;;;5045199;28;20185;-72
2022/01/22 10:24:41;;;;;;;5.23;2.40;;;;;;;;;;5043468;28;20178;-71
2022/01/22 10:30:10;;;;;;;9.10;2.50;;;;;;;;;;5036494;28;20224;-72
2022/01/22 10:32:48;;;;;;;11.43;2.23;;;;;;;;;;5047476;28;20211;-71
2022/01/22 10:35:16;;;;;;;4.10;3.07;;;;;;;;;;5043975;28;20181;-71
2022/01/22 10:37:42;;;;;;;9.03;2.30;;;;;;;;;;5048682;28;20201;-71
2022/01/22 10:40:42;;;;;;;10.27;2.20;;;;;;;;;;5046262;28;20288;-71
2022/01/22 10:43:32;;;;;;;4.07;1.57;;;;;;;;;;5019301;28;20194;-70
2022/01/22 10:46:32;;;;;;;10.53;1.93;;;;;;;;;;5041361;28;20318;-71
2022/01/22 10:49:00;;;;;;;10.30;1.90;;;;;;;;;;5043330;28;20579;-71
2022/01/22 10:51:28;;;;;;;6.83;2.37;;;;;;;;;;5042934;28;20644;-71
2022/01/22 10:54:02;;;;;;;9.73;2.27;;;;;;;;;;5041804;28;20193;-69
2022/01/22 10:56:30;;;;;;;8.43;2.70;;;;;;;;;;5041631;28;20177;-70
2022/01/22 10:59:07;;;;;;;10.07;2.43;;;;;;;;;;5042570;28;20193;-70
2022/01/22 11:01:56;;;;;;;6.80;2.27;;;;;;;;;;5044660;28;20237;-69
2022/01/22 11:04:38;;;;;;;16.23;2.50;;;;;;;;;;5042845;28;20653;-69
2022/01/22 11:07:05;;;;;;;8.60;2.30;;;;;;;;;;5038516;28;20186;-71
2022/01/22 11:09:31;;;;;;;6.83;2.80;;;;;;;;;;5044785;28;20314;-70
2022/01/22 11:12:01;;;;;;;8.17;2.43;;;;;;;;;;5040908;28;20217;-70
2022/01/22 11:14:28;;;;;;;12.10;2.70;;;;;;;;;;5044000;28;20536;-72
2022/01/22 11:16:54;;;;;;;8.20;2.50;;;;;;;;;;5038860;28;20185;-71
2022/01/22 11:19:35;;;;;;;5.70;2.73;;;;;;;;;;5044567;28;20258;-70
2022/01/22 11:22:08;;;;;;;10.87;3.10;;;;;;;;;;5043003;28;20190;-70
2022/01/22 11:24:36;;;;;;;9.00;2.90;;;;;;;;;;5040982;28;20186;-71
2022/01/22 11:27:04;;;;;;;9.03;3.33;;;;;;;;;;5039167;28;20836;-71
2022/01/22 11:30:03;;;;;;;8.77;3.17;;;;;;;;;;5044590;28;20181;-70
2022/01/22 11:32:39;;;;;;;14.30;3.30;;;;;;;;;;5043123;28;20200;-71
2022/01/22 11:35:07;;;;;;;12.30;4.17;;;;;;;;;;5041579;28;20216;-70
2022/01/22 11:37:51;;;;;;;12.33;3.77;;;;;;;;;;5042606;28;20363;-71
2022/01/22 11:40:26;;;;;;;13.63;4.00;;;;;;;;;;5044541;28;20656;-71
2022/01/22 11:43:07;;;;;;;13.60;4.03;;;;;;;;;;5034475;28;20548;-70
2022/01/22 11:45:35;;;;;;;13.30;5.10;;;;;;;;;;5043567;28;20286;-70
2022/01/22 11:48:18;;;;;;;16.70;5.30;;;;;;;;;;5039303;28;20599;-70
2022/01/22 11:50:49;;;;;;;18.33;5.23;;;;;;;;;;5043153;28;20188;-71
2022/01/22 11:53:29;;;;;;;11.37;4.53;;;;;;;;;;5041222;28;20238;-70
2022/01/22 11:56:07;;;;;;;16.23;5.03;;;;;;;;;;5040126;28;20247;-70
2022/01/22 11:58:32;;;;;;;11.73;4.73;;;;;;;;;;5041781;28;20181;-70
2022/01/22 12:00:58;;;;;;;9.07;4.20;;;;;;;;;;5042341;28;20194;-70
2022/01/22 12:03:23;;;;;;;15.97;4.63;;;;;;;;;;5044515;28;20534;-70
2022/01/22 12:05:54;;;;;;;13.27;4.80;;;;;;;;;;5045560;28;20722;-69
2022/01/22 12:08:21;;;;;;;12.67;4.57;;;;;;;;;;5041383;28;20228;-71
2022/01/22 12:16:40;;;;;;;13.27;4.40;;;;;;;;;;5042654;28;20263;-69
2022/01/22 12:19:47;;;;;;;11.23;4.33;;;;;;;;;;5041646;28;20554;-68
2022/01/22 12:22:34;;;;;;;14.47;3.90;;;;;;;;;;5039885;28;20194;-68
2022/01/22 12:25:22;;;;;;;15.73;4.40;;;;;;;;;;5040674;28;20237;-69
2022/01/22 12:27:52;;;;;;;13.63;3.83;;;;;;;;;;5044926;28;20177;-69
2022/01/22 12:31:00;;;;;;;15.90;3.40;;;;;;;;;;5042177;28;20208;-69
2022/01/22 12:33:28;;;;;;;14.73;4.03;;;;;;;;;;5036794;28;20284;-69
2022/01/22 12:35:58;;;;;;;10.90;4.07;;;;;;;;;;5045351;28;20295;-68
2022/01/22 12:38:33;;;;;;;10.63;4.10;;;;;;;;;;5043965;28;20185;-68
2022/01/22 12:41:14;;;;;;;11.17;3.87;;;;;;;;;;5042945;28;20251;-69
2022/01/22 12:43:43;;;;;;;13.63;3.83;;;;;;;;;;5039119;28;20993;-68
2022/01/22 12:46:09;;;;;;;11.00;3.90;;;;;;;;;;5044375;28;20200;-68
2022/01/22 12:48:38;;;;;;;10.53;4.50;;;;;;;;;;5039486;28;20570;-69
2022/01/22 12:51:06;;;;;;;15.40;4.33;;;;;;;;;;5041408;28;20185;-69
2022/01/22 12:53:33;;;;;;;13.70;4.60;;;;;;;;;;5041771;28;20235;-68
2022/01/22 12:58:31;;;;;;;12.13;4.10;;;;;;;;;;5038915;28;20193;-69
2022/01/22 13:01:10;;;;;;;8.70;4.00;;;;;;;;;;5040031;28;20221;-69
2022/01/22 13:03:38;;;;;;;10.90;4.40;;;;;;;;;;5039644;28;20204;-69
2022/01/22 13:06:04;;;;;;;13.03;4.50;;;;;;;;;;5044989;28;20399;-69
2022/01/22 13:08:31;;;;;;;9.53;4.63;;;;;;;;;;5040048;28;20338;-69
2022/01/22 13:11:02;;;;;;;17.13;4.33;;;;;;;;;;5045441;28;20276;-69
2022/01/22 13:13:28;;;;;;;13.37;4.53;;;;;;;;;;5037607;28;20189;-69
2022/01/22 13:16:16;;;;;;;10.70;4.43;;;;;;;;;;5043967;28;20184;-68
2022/01/22 13:18:48;;;;;;;11.07;4.10;;;;;;;;;;5040384;28;20525;-68
2022/01/22 13:21:16;;;;;;;11.13;4.77;;;;;;;;;;5042141;28;20193;-69
2022/01/22 13:23:41;;;;;;;11.73;4.43;;;;;;;;;;5040665;28;20177;-69
2022/01/22 13:26:08;;;;;;;14.27;3.93;;;;;;;;;;5042654;28;21186;-69
2022/01/22 13:28:36;;;;;;;13.53;4.07;;;;;;;;;;5039442;28;20185;-69
2022/01/22 13:31:17;;;;;;;10.83;3.90;;;;;;;;;;5041171;28;20206;-69
2022/01/22 13:34:03;;;;;;;10.73;4.30;;;;;;;;;;5043897;28;20625;-68
2022/01/22 13:36:46;;;;;;;14.60;3.93;;;;;;;;;;5041289;28;20259;-67
2022/01/22 13:49:52;;;;;;;11.53;3.57;;;;;;;;;;5038428;28;20195;-68
2022/01/22 13:52:20;;;;;;;12.73;4.20;;;;;;;;;;5041183;28;20181;-68
2022/01/22 13:54:49;;;;;;;11.20;3.70;;;;;;;;;;5043686;28;20189;-68
2022/01/22 13:57:17;;;;;;;13.50;3.80;;;;;;;;;;5039791;28;20533;-69
2022/01/22 13:59:45;;;;;;;10.73;4.50;;;;;;;;;;5033253;28;20193;-67
2022/01/22 14:04:53;;;;;;;11.50;3.60;;;;;;;;;;5039150;28;20230;-70
2022/01/22 14:07:24;;;;;;;9.20;3.70;;;;;;;;;;5040986;28;20193;-68
2022/01/22 14:09:56;;;;;;;14.90;4.00;;;;;;;;;;5040388;28;20290;-69
2022/01/22 14:12:27;;;;;;;14.00;3.77;;;;;;;;;;5040582;28;20182;-70
2022/01/22 14:14:58;;;;;;;8.67;3.20;;;;;;;;;;5032869;28;20212;-69
2022/01/22 14:17:26;;;;;;;8.20;3.53;;;;;;;;;;5040030;28;20184;-69
2022/01/22 14:20:03;;;;;;;14.63;3.70;;;;;;;;;;5036560;28;20617;-69
2022/01/22 14:22:29;;;;;;;14.90;3.33;;;;;;;;;;5041639;28;20188;-69
2022/01/22 14:25:13;;;;;;;7.90;3.40;;;;;;;;;;5031672;28;20571;-69
2022/01/22 14:27:39;;;;;;;9.17;3.20;;;;;;;;;;5038948;28;20277;-69
2022/01/22 14:30:04;;;;;;;9.43;3.70;;;;;;;;;;5038553;28;20273;-69
2022/01/22 14:32:30;;;;;;;10.60;3.10;;;;;;;;;;5039176;28;20186;-68
2022/01/22 14:34:55;;;;;;;9.37;3.20;;;;;;;;;;5036424;28;20497;-68
2022/01/22 14:37:28;;;;;;;8.90;3.03;;;;;;;;;;5038446;28;20190;-69
2022/01/22 14:45:25;;;;;;;5.97;2.00;;;;;;;;;;5040694;28;20396;-69
2022/01/22 14:47:57;;;;;;;6.87;2.20;;;;;;;;;;5046592;28;20343;-69
2022/01/22 14:50:22;;;;;;;8.97;2.10;;;;;;;;;;5040449;28;20182;-69
2022/01/22 14:52:52;;;;;;;9.77;2.00;;;;;;;;;;5042286;28;20180;-69
2022/01/22 14:55:18;;;;;;;12.50;2.33;;;;;;;;;;5037367;28;20177;-69
2022/01/22 14:57:43;;;;;;;9.07;2.57;;;;;;;;;;5044493;28;20688;-68
2022/01/22 15:00:12;;;;;;;11.27;2.70;;;;;;;;;;5041253;28;20456;-69
2022/01/22 15:02:39;;;;;;;7.63;2.23;;;;;;;;;;5042709;28;20256;-68
2022/01/22 15:05:09;;;;;;;11.23;2.83;;;;;;;;;;5044549;28;20692;-68
2022/01/22 15:07:35;;;;;;;6.70;1.80;;;;;;;;;;5043223;28;20181;-69
2022/01/22 15:10:02;;;;;;;7.67;2.20;;;;;;;;;;5043038;28;20779;-69
2022/01/22 15:12:28;;;;;;;8.93;2.17;;;;;;;;;;5041593;28;20181;-69
2022/01/22 15:14:53;;;;;;;5.77;1.73;;;;;;;;;;5043403;28;20189;-69
2022/01/22 15:19:47;;;;;;;8.77;2.10;;;;;;;;;;5043170;28;20291;-68
2022/01/22 15:22:18;;;;;;;6.63;2.00;;;;;;;;;;5042327;28;20367;-68
2022/01/22 15:24:49;;;;;;;13.97;2.67;;;;;;;;;;5044057;28;20646;-69
2022/01/22 15:27:16;;;;;;;11.10;2.47;;;;;;;;;;5035625;28;20680;-69
2022/01/22 15:29:54;;;;;;;13.60;3.53;;;;;;;;;;5038311;28;20208;-69
2022/01/22 15:35:05;;;;;;;17.07;8.33;;;;;;;;;;5038866;28;20194;-69
2022/01/22 15:37:30;;;;;;;14.97;7.30;;;;;;;;;;5036779;28;20181;-69
2022/01/22 15:39:55;;;;;;;13.67;4.97;;;;;;;;;;5039232;28;21141;-69
2022/01/22 15:42:20;;;;;;;7.60;2.97;;;;;;;;;;5034331;28;20196;-68
2022/01/22 15:44:46;;;;;;;6.33;2.13;;;;;;;;;;5043513;28;20185;-68
2022/01/22 15:47:12;;;;;;;4.57;1.80;;;;;;;;;;5041575;28;20269;-69
2022/01/22 15:49:43;;;;;;;16.90;2.57;;;;;;;;;;4343974;28;10000855;-69
2022/01/22 15:52:09;;;;;;;9.13;2.40;;;;;;;;;;5037520;28;20760;-69
2022/01/22 15:54:34;;;;;;;7.73;2.70;;;;;;;;;;5042884;28;20217;-68
2022/01/22 15:57:00;;;;;;;8.33;2.90;;;;;;;;;;5039838;28;20185;-68
2022/01/22 15:59:26;;;;;;;6.73;2.23;;;;;;;;;;5042411;28;20190;-68
2022/01/22 16:01:52;;;;;;;6.20;2.50;;;;;;;;;;5039579;28;20193;-68
2022/01/22 16:04:18;;;;;;;10.63;2.43;;;;;;;;;;5039076;28;20181;-68
2022/01/22 16:09:18;;;;;;;7.37;2.73;;;;;;;;;;5038944;28;20317;-68
2022/01/22 16:11:45;;;;;;;7.17;1.80;;;;;;;;;;5037191;28;20656;-68
2022/01/22 16:14:11;;;;;;;12.17;2.10;;;;;;;;;;5035372;28;20587;-69
2022/01/22 16:16:39;;;;;;;7.50;1.50;;;;;;;;;;5036517;28;20520;-68
2022/01/22 16:19:07;;;;;;;6.67;2.17;;;;;;;;;;5038560;28;20197;-69
2022/01/22 16:21:33;;;;;;;5.40;1.57;;;;;;;;;;5037286;28;20489;-69
2022/01/22 16:23:59;;;;;;;8.93;2.10;;;;;;;;;;5036011;28;20208;-68
2022/01/22 16:26:25;;;;;;;5.20;1.73;;;;;;;;;;5040501;28;20538;-68
2022/01/22 16:28:50;;;;;;;6.00;1.70;;;;;;;;;;5037849;28;20204;-69
2022/01/22 16:31:16;;;;;;;9.50;2.10;;;;;;;;;;5036252;28;20559;-69
2022/01/22 16:33:42;;;;;;;8.53;1.97;;;;;;;;;;5041478;28;20192;-69
2022/01/22 16:36:07;;;;;;;7.03;2.03;;;;;;;;;;5039732;28;20268;-69
2022/01/22 16:38:33;;;;;;;8.17;2.20;;;;;;;;;;5039101;28;20193;-68
2022/01/22 16:41:00;;;;;;;6.77;2.23;;;;;;;;;;5036915;28;20181;-68